createdAt,value
2022-10-05T00:02:20.567Z,99585.81
2022-10-05T00:04:49.117Z,99590.59
2022-10-05T00:07:18.789Z,99593.31
2022-10-05T00:09:56.969Z,99592.09
2022-10-05T00:12:24.801Z,99597.97
2022-10-05T00:14:55.435Z,99589.22
2022-10-05T00:17:30.453Z,99591.34
2022-10-05T00:19:57.482Z,99584.88
2022-10-05T00:22:30.052Z,99587.78
2022-10-05T00:25:00.226Z,99595.09
2022-10-05T00:27:33.036Z,99592.16
2022-10-05T00:30:02.917Z,99589.91
2022-10-05T00:32:29.660Z,99585.31
2022-10-05T00:34:57.308Z,99589.06
2022-10-05T00:37:24.069Z,99584.88
2022-10-05T00:39:50.912Z,99583.19
2022-10-05T00:42:37.066Z,99582.37
2022-10-05T00:45:09.321Z,99587.78
2022-10-05T00:47:54.375Z,99590.72
2022-10-05T00:50:45.442Z,99594.03
2022-10-05T00:53:22.514Z,99591.09
2022-10-05T00:56:02.382Z,99584.63
2022-10-05T00:58:29.061Z,99590.28
2022-10-05T01:01:11.395Z,99601.12
2022-10-05T01:04:08.727Z,99596.97
2022-10-05T01:07:06.390Z,99593.44
2022-10-05T01:09:51.290Z,99584.47
2022-10-05T01:12:49.063Z,99594.50
2022-10-05T01:15:27.762Z,99594.94
2022-10-05T01:18:08.727Z,99587.84
2022-10-05T01:20:53.371Z,99583.50
2022-10-05T01:23:44.718Z,99573.25
2022-10-05T01:26:14.142Z,99566.19
2022-10-05T01:29:01.230Z,99567.59
2022-10-05T01:31:49.216Z,99568.44
2022-10-05T01:34:18.897Z,99563.62
2022-10-05T01:37:22.002Z,99564.06
2022-10-05T01:40:00.495Z,99566.56
2022-10-05T01:42:39.152Z,99568.22
2022-10-05T01:45:25.302Z,99564.69
2022-10-05T01:48:04.580Z,99557.59
2022-10-05T01:51:18.708Z,99564.28
2022-10-05T01:54:00.557Z,99560.75
2022-10-05T01:56:42.273Z,99560.75
2022-10-05T01:59:36.727Z,99550.97
2022-10-05T02:02:16.334Z,99549.09
2022-10-05T02:05:04.421Z,99548.03
2022-10-05T02:07:42.003Z,99545.56
2022-10-05T02:10:31.040Z,99545.56
2022-10-05T02:13:03.487Z,99543.28
2022-10-05T02:15:38.628Z,99541.59
2022-10-05T02:18:13.392Z,99554.13
2022-10-05T02:20:42.924Z,99545.34
2022-10-05T02:23:18.334Z,99542.47
2022-10-05T02:25:47.638Z,99530.75
2022-10-05T02:28:36.251Z,99534.31
2022-10-05T02:31:08.891Z,99519.31
2022-10-05T02:33:35.979Z,99521.81
2022-10-05T02:36:13.286Z,99519.31
2022-10-05T02:39:01.092Z,99524.72
2022-10-05T02:41:33.656Z,99519.75
2022-10-05T02:44:23.635Z,99514.56
2022-10-05T02:47:03.581Z,99514.34
2022-10-05T02:49:40.686Z,99517.06
2022-10-05T02:52:13.454Z,99515.41
2022-10-05T02:55:00.765Z,99511.84
2022-10-05T02:57:44.001Z,99512.06
2022-10-05T03:00:16.416Z,99515.00
2022-10-05T03:02:55.614Z,99509.81
2022-10-05T03:05:28.063Z,99504.63
2022-10-05T03:08:17.811Z,99511.91
2022-10-05T03:11:03.099Z,99505.66
2022-10-05T03:13:48.790Z,99503.41
2022-10-05T03:16:24.720Z,99507.16
2022-10-05T03:19:16.327Z,99509.06
2022-10-05T03:21:58.150Z,99508.44
2022-10-05T03:24:39.116Z,99508.44
2022-10-05T03:27:24.387Z,99502.44
2022-10-05T03:30:03.511Z,99517.03
2022-10-05T03:32:30.185Z,99513.44
2022-10-05T03:35:01.234Z,99518.88
2022-10-05T03:37:48.156Z,99512.22
2022-10-05T03:40:58.794Z,99507.84
2022-10-05T03:43:53.258Z,99504.94
2022-10-05T03:46:22.903Z,99506.44
2022-10-05T03:49:16.051Z,99501.62
2022-10-05T03:51:47.260Z,99490.41
2022-10-05T03:54:30.813Z,99477.69
2022-10-05T03:57:09.766Z,99482.72
2022-10-05T03:59:47.205Z,99491.69
2022-10-05T04:02:29.996Z,99481.69
2022-10-05T04:05:10.332Z,99489.66
2022-10-05T04:07:46.894Z,99486.09
2022-10-05T04:10:21.263Z,99491.31
2022-10-05T04:13:03.077Z,99497.31
2022-10-05T04:15:40.409Z,99492.97
2022-10-05T04:18:20.327Z,99502.50
2022-10-05T04:20:53.403Z,99503.78
2022-10-05T04:23:39.746Z,99501.09
2022-10-05T04:26:12.096Z,99501.31
2022-10-05T04:28:44.893Z,99496.72
2022-10-05T04:31:16.834Z,99496.50
2022-10-05T04:33:54.290Z,99490.25
2022-10-05T04:36:35.822Z,99492.97
2022-10-05T04:39:14.814Z,99496.50
2022-10-05T04:41:58.996Z,99498.37
2022-10-05T04:45:01.797Z,99495.66
2022-10-05T04:47:44.851Z,99491.06
2022-10-05T04:50:32.790Z,99497.53
2022-10-05T04:53:09.276Z,99501.91
2022-10-05T04:56:17.747Z,99493.78
2022-10-05T04:59:21.099Z,99492.75
2022-10-05T05:02:15.033Z,99498.59
2022-10-05T05:05:19.041Z,99504.84
2022-10-05T05:07:54.820Z,99502.97
2022-10-05T05:11:23.680Z,99504.84
2022-10-05T05:14:00.809Z,99505.87
2022-10-05T05:16:35.999Z,99511.69
2022-10-05T05:19:11.528Z,99516.50
2022-10-05T05:22:06.076Z,99508.38
2022-10-05T05:24:32.754Z,99507.31
2022-10-05T05:27:32.167Z,99511.09
2022-10-05T05:30:18.261Z,99521.91
2022-10-05T05:33:07.300Z,99521.91
2022-10-05T05:36:01.691Z,99521.09
2022-10-05T05:38:35.425Z,99518.59
2022-10-05T05:41:25.074Z,99520.47
2022-10-05T05:44:10.026Z,99515.28
2022-10-05T05:47:02.496Z,99504.47
2022-10-05T05:49:48.031Z,99512.34
2022-10-05T05:52:22.370Z,99520.25
2022-10-05T05:54:59.261Z,99515.66
2022-10-05T05:57:43.598Z,99517.31
2022-10-05T06:00:20.248Z,99521.91
2022-10-05T06:03:02.100Z,99525.22
2022-10-05T06:05:31.014Z,99523.97
2022-10-05T06:08:25.721Z,99518.53
2022-10-05T06:11:17.184Z,99518.31
2022-10-05T06:13:44.472Z,99518.31
2022-10-05T06:16:42.984Z,99527.06
2022-10-05T06:19:16.678Z,99517.88
2022-10-05T06:22:07.720Z,99527.22
2022-10-05T06:24:40.668Z,99526.16
2022-10-05T06:27:19.754Z,99527.41
2022-10-05T06:30:11.355Z,99531.56
2022-10-05T06:33:05.226Z,99538.19
2022-10-05T06:35:56.969Z,99542.94
2022-10-05T06:38:29.120Z,99545.81
2022-10-05T06:41:08.076Z,99547.88
2022-10-05T06:44:00.978Z,99551.78
2022-10-05T06:46:55.692Z,99556.31
2022-10-05T06:49:30.299Z,99550.00
2022-10-05T06:52:21.709Z,99542.66
2022-10-05T06:55:22.990Z,99548.00
2022-10-05T06:58:14.393Z,99557.97
2022-10-05T07:00:49.766Z,99559.75
2022-10-05T07:03:28.051Z,99561.59
2022-10-05T07:06:06.399Z,99560.97
2022-10-05T07:08:58.314Z,99563.81
2022-10-05T07:11:52.934Z,99572.72
2022-10-05T07:14:35.691Z,99573.72
2022-10-05T07:17:20.119Z,99568.44
2022-10-05T07:20:09.132Z,99570.47
2022-10-05T07:22:38.884Z,99564.94
2022-10-05T07:25:28.251Z,99575.13
2022-10-05T07:28:13.927Z,99573.41
2022-10-05T07:30:52.741Z,99563.53
2022-10-05T07:33:40.399Z,99574.50
2022-10-05T07:36:32.324Z,99569.00
2022-10-05T07:39:05.578Z,99574.59
2022-10-05T07:41:40.321Z,99580.16
2022-10-05T07:44:20.854Z,99578.41
2022-10-05T07:46:55.199Z,99581.25
2022-10-05T07:49:26.025Z,99570.53
2022-10-05T07:52:01.782Z,99576.97
2022-10-05T07:54:38.243Z,99585.84
2022-10-05T07:57:25.826Z,99581.59
2022-10-05T08:00:02.031Z,99570.84
2022-10-05T08:02:58.395Z,99576.44
2022-10-05T08:05:33.765Z,99575.50
2022-10-05T08:08:23.999Z,99562.88
2022-10-05T08:11:09.576Z,99555.91
2022-10-05T08:13:47.658Z,99559.56
2022-10-05T08:16:15.607Z,99558.66
2022-10-05T08:18:51.422Z,99565.41
2022-10-05T08:21:25.790Z,99565.31
2022-10-05T08:24:38.968Z,99568.19
2022-10-05T08:27:44.658Z,99567.00
2022-10-05T08:30:14.051Z,99582.97
2022-10-05T08:32:50.589Z,99579.31
2022-10-05T08:35:26.568Z,99572.94
2022-10-05T08:37:54.476Z,99579.91
2022-10-05T08:40:39.957Z,99584.97
2022-10-05T08:43:32.931Z,99597.66
2022-10-05T08:46:14.005Z,99594.69
2022-10-05T08:48:56.567Z,99600.25
2022-10-05T08:52:05.231Z,99595.72
2022-10-05T08:54:37.702Z,99598.94
2022-10-05T08:57:28.976Z,99597.50
2022-10-05T08:59:58.523Z,99590.84
2022-10-05T09:02:45.763Z,99590.25
2022-10-05T09:05:21.669Z,99583.34
2022-10-05T09:08:00.647Z,99592.44
2022-10-05T09:10:33.251Z,99590.66
2022-10-05T09:13:21.694Z,99590.50
2022-10-05T09:16:19.389Z,99589.66
2022-10-05T09:19:01.156Z,99590.09
2022-10-05T09:21:43.382Z,99599.53
2022-10-05T09:24:12.851Z,99599.13
2022-10-05T09:27:10.114Z,99597.94
2022-10-05T09:29:58.435Z,99584.22
2022-10-05T09:33:02.814Z,99581.75
2022-10-05T09:36:15.644Z,99584.06
2022-10-05T09:39:19.600Z,99586.41
2022-10-05T09:42:07.812Z,99588.78
2022-10-05T09:45:08.260Z,99579.25
2022-10-05T09:48:05.633Z,99567.84
2022-10-05T09:50:38.245Z,99575.38
2022-10-05T09:53:21.822Z,99575.94
2022-10-05T09:56:25.549Z,99574.87
2022-10-05T09:59:20.379Z,99577.09
2022-10-05T10:01:58.986Z,99572.78
2022-10-05T10:05:05.267Z,99575.50
2022-10-05T10:07:53.961Z,99570.62
2022-10-05T10:10:29.369Z,99564.34
2022-10-05T10:13:17.131Z,99567.16
2022-10-05T10:16:12.130Z,99568.91
2022-10-05T10:19:07.016Z,99569.53
2022-10-05T10:22:18.869Z,99566.31
2022-10-05T10:25:21.111Z,99572.16
2022-10-05T10:28:28.103Z,99573.38
2022-10-05T10:31:33.993Z,99570.19
2022-10-05T10:34:36.088Z,99577.38
2022-10-05T10:37:21.267Z,99570.38
2022-10-05T10:40:15.000Z,99558.19
2022-10-05T10:43:22.097Z,99558.28
2022-10-05T10:46:10.868Z,99551.47
2022-10-05T10:48:40.314Z,99553.44
2022-10-05T10:51:37.532Z,99541.19
2022-10-05T10:54:22.978Z,99539.13
2022-10-05T10:57:15.470Z,99546.06
2022-10-05T11:00:03.606Z,99550.56
2022-10-05T11:03:01.377Z,99539.19
2022-10-05T11:05:48.804Z,99536.63
2022-10-05T11:08:34.394Z,99533.16
2022-10-05T11:11:29.382Z,99529.34
2022-10-05T11:14:33.633Z,99526.91
2022-10-05T11:17:15.552Z,99521.19
2022-10-05T11:20:19.635Z,99526.19
2022-10-05T11:22:58.901Z,99530.03
2022-10-05T11:25:49.805Z,99521.28
2022-10-05T11:28:57.569Z,99516.38
2022-10-05T11:31:52.774Z,99512.59
2022-10-05T11:34:29.110Z,99509.31
2022-10-05T11:36:58.825Z,99506.84
2022-10-05T11:39:33.538Z,99503.34
2022-10-05T11:42:19.898Z,99501.16
2022-10-05T11:45:06.278Z,99508.84
2022-10-05T11:48:07.315Z,99503.94
2022-10-05T11:50:52.838Z,99512.16
2022-10-05T11:53:40.743Z,99495.19
2022-10-05T11:56:36.161Z,99496.56
2022-10-05T11:59:23.413Z,99503.97
2022-10-05T12:02:02.542Z,99510.00
2022-10-05T12:04:41.706Z,99510.00
2022-10-05T12:07:26.380Z,99510.03
2022-10-05T12:10:45.793Z,99505.13
2022-10-05T12:13:40.452Z,99499.09
2022-10-05T12:16:25.931Z,99500.47
2022-10-05T12:19:29.983Z,99499.91
2022-10-05T12:22:04.157Z,99499.94
2022-10-05T12:24:36.887Z,99495.28
2022-10-05T12:27:12.877Z,99494.19
2022-10-05T12:30:05.750Z,99492.81
2022-10-05T12:32:41.504Z,99491.72
2022-10-05T12:35:43.531Z,99486.50
2022-10-05T12:38:28.712Z,99486.53
2022-10-05T12:40:55.394Z,99489.81
2022-10-05T12:43:46.925Z,99490.63
2022-10-05T12:46:22.891Z,99490.91
2022-10-05T12:49:10.856Z,99491.72
2022-10-05T12:51:43.255Z,99496.66
2022-10-05T12:54:22.089Z,99499.69
2022-10-05T12:56:59.494Z,99499.66
2022-10-05T12:59:44.715Z,99498.00
2022-10-05T13:02:26.784Z,99494.97
2022-10-05T13:05:17.858Z,99492.78
2022-10-05T13:08:23.051Z,99488.66
2022-10-05T13:11:01.858Z,99501.03
2022-10-05T13:13:34.755Z,99496.34
2022-10-05T13:16:07.673Z,99499.63
2022-10-05T13:18:51.321Z,99495.50
2022-10-05T13:21:32.824Z,99499.06
2022-10-05T13:24:19.347Z,99491.37
2022-10-05T13:27:14.299Z,99480.94
2022-10-05T13:30:09.184Z,99484.22
2022-10-05T13:32:41.787Z,99488.91
2022-10-05T13:35:20.938Z,99482.87
2022-10-05T13:38:02.859Z,99494.69
2022-10-05T13:40:44.055Z,99495.78
2022-10-05T13:43:44.095Z,99485.63
2022-10-05T13:46:14.003Z,99490.84
2022-10-05T13:49:14.773Z,99485.06
2022-10-05T13:51:50.409Z,99482.34
2022-10-05T13:54:27.177Z,99478.75
2022-10-05T13:57:05.502Z,99483.72
2022-10-05T13:59:50.895Z,99479.88
2022-10-05T14:02:25.888Z,99475.19
2022-10-05T14:05:00.439Z,99479.03
2022-10-05T14:07:38.459Z,99477.94
2022-10-05T14:10:13.858Z,99472.72
2022-10-05T14:12:43.486Z,99470.25
2022-10-05T14:15:30.616Z,99463.09
2022-10-05T14:17:57.374Z,99466.13
2022-10-05T14:20:36.532Z,99460.91
2022-10-05T14:23:14.728Z,99459.00
2022-10-05T14:25:53.913Z,99460.09
2022-10-05T14:28:35.030Z,99462.00
2022-10-05T14:31:26.585Z,99458.44
2022-10-05T14:33:53.356Z,99456.53
2022-10-05T14:36:40.183Z,99452.09
2022-10-05T14:39:12.820Z,99450.75
2022-10-05T14:41:47.703Z,99450.75
2022-10-05T14:44:14.417Z,99453.47
2022-10-05T14:46:54.625Z,99449.91
2022-10-05T14:49:26.750Z,99444.69
2022-10-05T14:51:55.809Z,99445.81
2022-10-05T14:54:23.049Z,99448.56
2022-10-05T14:56:54.200Z,99438.94
2022-10-05T14:59:23.710Z,99436.19
2022-10-05T15:02:13.924Z,99429.06
2022-10-05T15:04:50.177Z,99431.00
2022-10-05T15:07:28.075Z,99437.59
2022-10-05T15:10:00.656Z,99433.19
2022-10-05T15:12:46.764Z,99442.53
2022-10-05T15:15:37.101Z,99435.41
2022-10-05T15:18:17.250Z,99435.69
2022-10-05T15:21:11.621Z,99437.87
2022-10-05T15:23:43.176Z,99442.81
2022-10-05T15:26:28.741Z,99429.87
2022-10-05T15:29:29.591Z,99433.75
2022-10-05T15:32:14.797Z,99431.00
2022-10-05T15:34:59.768Z,99435.66
2022-10-05T15:37:36.270Z,99441.97
2022-10-05T15:40:06.698Z,99430.47
2022-10-05T15:42:46.449Z,99429.66
2022-10-05T15:45:24.304Z,99433.78
2022-10-05T15:47:58.349Z,99426.94
2022-10-05T15:50:55.491Z,99426.66
2022-10-05T15:53:47.707Z,99420.63
2022-10-05T15:56:27.513Z,99418.44
2022-10-05T15:59:00.805Z,99420.66
2022-10-05T16:01:33.609Z,99426.69
2022-10-05T16:04:23.498Z,99424.19
2022-10-05T16:07:21.090Z,99414.59
2022-10-05T16:10:15.854Z,99424.22
2022-10-05T16:13:07.632Z,99417.31
2022-10-05T16:15:42.991Z,99420.63
2022-10-05T16:18:36.367Z,99419.28
2022-10-05T16:21:14.108Z,99419.00
2022-10-05T16:24:18.334Z,99420.66
2022-10-05T16:26:59.400Z,99423.94
2022-10-05T16:29:45.890Z,99417.62
2022-10-05T16:32:19.516Z,99426.41
2022-10-05T16:35:04.369Z,99425.59
2022-10-05T16:37:41.094Z,99425.59
2022-10-05T16:40:32.295Z,99433.28
2022-10-05T16:43:16.189Z,99436.53
2022-10-05T16:46:02.390Z,99442.84
2022-10-05T16:48:37.687Z,99446.44
2022-10-05T16:51:47.422Z,99440.41
2022-10-05T16:54:23.300Z,99446.69
2022-10-05T16:56:59.509Z,99440.94
2022-10-05T16:59:48.036Z,99445.03
2022-10-05T17:02:35.351Z,99447.75
2022-10-05T17:05:17.778Z,99451.31
2022-10-05T17:08:03.178Z,99447.22
2022-10-05T17:10:35.663Z,99459.00
2022-10-05T17:13:37.518Z,99452.41
2022-10-05T17:16:29.095Z,99452.69
2022-10-05T17:19:43.223Z,99447.97
2022-10-05T17:22:24.251Z,99447.44
2022-10-05T17:24:53.602Z,99452.91
2022-10-05T17:27:50.957Z,99448.53
2022-10-05T17:30:31.659Z,99452.59
2022-10-05T17:33:20.429Z,99453.97
2022-10-05T17:36:08.550Z,99449.84
2022-10-05T17:38:35.311Z,99455.59
2022-10-05T17:41:19.878Z,99455.03
2022-10-05T17:44:21.049Z,99454.72
2022-10-05T17:46:52.045Z,99457.19
2022-10-05T17:50:16.163Z,99460.47
2022-10-05T17:53:02.797Z,99465.41
2022-10-05T17:55:58.846Z,99457.97
2022-10-05T17:58:29.075Z,99460.16
2022-10-05T18:00:59.040Z,99461.78
2022-10-05T18:03:33.434Z,99460.16
2022-10-05T18:06:42.611Z,99458.75
2022-10-05T18:09:21.059Z,99458.47
2022-10-05T18:12:12.840Z,99467.75
2022-10-05T18:15:06.989Z,99461.19
2022-10-05T18:17:46.685Z,99466.66
2022-10-05T18:20:34.961Z,99465.28
2022-10-05T18:23:01.660Z,99462.50
2022-10-05T18:25:51.042Z,99466.34
2022-10-05T18:28:34.983Z,99468.78
2022-10-05T18:31:53.128Z,99472.84
2022-10-05T18:35:06.531Z,99470.66
2022-10-05T18:37:47.907Z,99468.72
2022-10-05T18:40:38.462Z,99473.63
2022-10-05T18:43:29.592Z,99479.91
2022-10-05T18:46:27.329Z,99475.22
2022-10-05T18:49:19.049Z,99480.38
2022-10-05T18:52:14.286Z,99471.88
2022-10-05T18:55:13.343Z,99477.63
2022-10-05T18:58:01.944Z,99476.50
2022-10-05T19:01:02.888Z,99471.28
2022-10-05T19:03:41.645Z,99473.16
2022-10-05T19:06:24.966Z,99476.16
2022-10-05T19:09:31.349Z,99475.59
2022-10-05T19:12:07.725Z,99476.97
2022-10-05T19:14:51.037Z,99473.91
2022-10-05T19:17:55.773Z,99476.31
2022-10-05T19:20:38.289Z,99482.31
2022-10-05T19:23:13.265Z,99481.19
2022-10-05T19:25:53.139Z,99488.00
2022-10-05T19:28:30.792Z,99486.88
2022-10-05T19:31:12.917Z,99479.19
2022-10-05T19:34:16.488Z,99493.09
2022-10-05T19:36:58.430Z,99490.06
2022-10-05T19:39:50.203Z,99497.41
2022-10-05T19:42:53.179Z,99499.56
2022-10-05T19:45:26.002Z,99506.37
2022-10-05T19:48:08.543Z,99500.63
2022-10-05T19:50:38.794Z,99497.56
2022-10-05T19:53:22.976Z,99503.31
2022-10-05T19:55:49.844Z,99507.09
2022-10-05T19:58:22.580Z,99506.78
2022-10-05T20:01:01.651Z,99506.47
2022-10-05T20:03:31.031Z,99507.00
2022-10-05T20:06:03.349Z,99509.72
2022-10-05T20:08:39.521Z,99512.97
2022-10-05T20:11:09.101Z,99512.41
2022-10-05T20:13:36.957Z,99508.56
2022-10-05T20:16:31.406Z,99522.47
2022-10-05T20:19:17.031Z,99514.53
2022-10-05T20:21:54.164Z,99511.47
2022-10-05T20:24:26.194Z,99510.06
2022-10-05T20:27:12.645Z,99514.97
2022-10-05T20:29:43.667Z,99518.47
2022-10-05T20:32:12.189Z,99511.34
2022-10-05T20:34:44.594Z,99511.31
2022-10-05T20:37:13.834Z,99518.09
2022-10-05T20:39:41.716Z,99524.91
2022-10-05T20:42:09.653Z,99527.87
2022-10-05T20:44:37.459Z,99524.81
2022-10-05T20:47:05.043Z,99525.34
2022-10-05T20:49:32.098Z,99529.13
2022-10-05T20:51:59.191Z,99527.75
2022-10-05T20:54:27.252Z,99520.87
2022-10-05T20:56:55.735Z,99527.44
2022-10-05T20:59:26.064Z,99525.78
2022-10-05T21:01:52.968Z,99529.59
2022-10-05T21:04:22.842Z,99526.28
2022-10-05T21:06:49.694Z,99533.91
2022-10-05T21:09:19.376Z,99529.78
2022-10-05T21:11:48.826Z,99540.91
2022-10-05T21:14:16.443Z,99543.06
2022-10-05T21:16:43.572Z,99537.28
2022-10-05T21:19:14.726Z,99534.25
2022-10-05T21:21:43.614Z,99537.78
2022-10-05T21:24:13.335Z,99532.84
2022-10-05T21:26:44.688Z,99534.50
2022-10-05T21:29:13.025Z,99533.09
2022-10-05T21:31:40.490Z,99530.88
2022-10-05T21:34:07.794Z,99527.87
2022-10-05T21:36:35.388Z,99528.41
2022-10-05T21:39:02.217Z,99536.47
2022-10-05T21:41:28.954Z,99529.63
2022-10-05T21:43:55.713Z,99529.63
2022-10-05T21:46:26.437Z,99528.47
2022-10-05T21:48:54.605Z,99535.34
2022-10-05T21:51:25.072Z,99534.75
2022-10-05T21:54:02.809Z,99537.44
2022-10-05T21:56:34.882Z,99534.13
2022-10-05T21:59:04.616Z,99532.72
2022-10-05T22:01:31.458Z,99531.91
2022-10-05T22:03:58.206Z,99526.94
2022-10-05T22:06:25.101Z,99526.94
2022-10-05T22:08:51.823Z,99527.44
2022-10-05T22:11:18.705Z,99521.63
2022-10-05T22:13:51.099Z,99529.00
2022-10-05T22:16:21.251Z,99526.78
2022-10-05T22:18:49.158Z,99529.75
2022-10-05T22:21:16.616Z,99535.47
2022-10-05T22:23:45.420Z,99528.84
2022-10-05T22:26:15.988Z,99528.28
2022-10-05T22:28:43.282Z,99530.94
2022-10-05T22:31:12.560Z,99525.22
2022-10-05T22:33:40.221Z,99531.19
2022-10-05T22:36:08.058Z,99525.38
2022-10-05T22:38:34.974Z,99522.88
2022-10-05T22:41:01.767Z,99521.50
2022-10-05T22:43:28.532Z,99515.22
2022-10-05T22:45:56.086Z,99521.75
2022-10-05T22:48:23.210Z,99521.41
2022-10-05T22:50:50.167Z,99516.22
2022-10-05T22:53:17.007Z,99517.53
2022-10-05T22:55:43.713Z,99516.38
2022-10-05T22:58:10.503Z,99521.59
2022-10-05T23:00:57.089Z,99514.97
2022-10-05T23:03:24.158Z,99511.41
2022-10-05T23:05:57.577Z,99513.31
2022-10-05T23:08:24.560Z,99510.00
2022-10-05T23:10:52.609Z,99510.75
2022-10-05T23:13:19.355Z,99506.94
2022-10-05T23:15:46.053Z,99509.91
2022-10-05T23:18:12.781Z,99506.59
2022-10-05T23:20:40.251Z,99508.50
2022-10-05T23:23:07.015Z,99502.72
2022-10-05T23:25:33.744Z,99510.31
2022-10-05T23:28:02.649Z,99514.13
2022-10-05T23:30:29.657Z,99507.84
2022-10-05T23:32:56.438Z,99516.53
2022-10-05T23:35:23.195Z,99508.59
2022-10-05T23:37:49.918Z,99517.59
2022-10-05T23:40:16.725Z,99514.53
2022-10-05T23:42:43.494Z,99521.84
2022-10-05T23:45:11.956Z,99522.72
2022-10-05T23:47:39.788Z,99523.41
2022-10-05T23:50:08.252Z,99518.78
2022-10-05T23:52:35.769Z,99521.53
2022-10-05T23:55:04.504Z,99519.03
2022-10-05T23:57:31.316Z,99518.22
2022-10-05T23:59:58.094Z,99520.34
